Guanarteme — ECFV — position and weather

sailwx.info

Track history (hours):
 
Tides and Currents Weather Stations Pressure Air Temp Water Temp Dewpoint Dewpoint Depression Visibility Wind Speed Wind Dir Waves Ship Positions

Guanarteme

Last reported at 2018-Jun-23 16:35 UTC. Time now 2018-Jun-23 23:39 UTC.
Position N 38°41' W 009°13'.

Length 96 m; draft 5.5 m.

Type: Ship. MMSI: 224365000.

Date/timePositionNaut miles runAvg speedWind from/ knotsBaromVisibWave heightAir tempDewpointWater temp
2018-Jun-23 16:35N 38°41' W 009°13'0 0.0
2018-Jun-23 16:30N 38°41' W 009°13'0 0.0
2018-Jun-23 16:00N 38°41' W 009°13'2 4.1
2018-Jun-23 15:26N 38°42' W 009°10'2 5.7
2018-Jun-23 15:01N 38°43' W 009°07'1 1.5
2018-Jun-23 14:30N 38°43' W 009°07'0 0.0
2018-Jun-23 14:00N 38°43' W 009°07'0 0.0
2018-Jun-23 13:30N 38°43' W 009°07'0 0.0
2018-Jun-23 12:57N 38°43' W 009°07'0 0.0
2018-Jun-23 12:30N 38°43' W 009°07'0 0.0
2018-Jun-23 11:57N 38°43' W 009°07'0 0.7
2018-Jun-23 11:31N 38°43' W 009°06'5 9.1
2018-Jun-23 10:57N 38°41' W 009°12'4 9.6
2018-Jun-23 10:31N 38°41' W 009°18'611.4
2018-Jun-23 10:01N 38°36' W 009°22'612.1
2018-Jun-23 09:31N 38°30' W 009°20'611.7
2018-Jun-23 09:01N 38°25' W 009°18'510.7
2018-Jun-23 08:30N 38°21' W 009°13'611.4
2018-Jun-23 08:00N 38°24' W 009°06'612.0
2018-Jun-23 07:30N 38°26' W 008°59'5 9.8
2018-Jun-23 06:58N 38°30' W 008°55'2 3.9
2018-Jun-23 06:31N 38°31' W 008°53'0 0.0
2018-Jun-23 05:55N 38°31' W 008°53'0 0.0
2018-Jun-23 05:28N 38°31' W 008°53'0 0.0
2018-Jun-23 04:58N 38°31' W 008°53'0 0.0
2018-Jun-23 04:25N 38°31' W 008°53'0 0.0
2018-Jun-23 03:58N 38°31' W 008°53'0 0.0
2018-Jun-23 02:49N 38°31' W 008°53'0 0.0
2018-Jun-23 02:25N 38°31' W 008°53'0 0.0
2018-Jun-23 01:58N 38°31' W 008°53'0 0.0
2018-Jun-23 01:28N 38°31' W 008°53'0 0.0
2018-Jun-23 00:58N 38°31' W 008°53'0 0.0
2018-Jun-23 00:28N 38°31' W 008°53'0 0.0
2018-Jun-22 23:55N 38°31' W 008°53'0 0.0
2018-Jun-22 23:28N 38°31' W 008°53'0 0.0
2018-Jun-22 22:58N 38°31' W 008°53'0 0.0
2018-Jun-22 22:28N 38°31' W 008°53'0 0.0
2018-Jun-22 21:58N 38°31' W 008°53'0 0.0
2018-Jun-22 21:28N 38°31' W 008°53'0 0.0
2018-Jun-22 20:52N 38°31' W 008°53'0 0.0
2018-Jun-22 20:28N 38°31' W 008°53'0 0.0
2018-Jun-22 19:52N 38°31' W 008°53'0 0.0
2018-Jun-22 19:16N 38°31' W 008°53'2 1.2
2018-Jun-22 17:15N 38°30' W 008°55'310.0
2018-Jun-22 17:00N 38°28' W 008°57'4 7.8
2018-Jun-22 16:30N 38°24' W 008°58'3 5.6
2018-Jun-22 16:00N 38°22' W 009°01'510.8
2018-Jun-22 15:30N 38°21' W 009°07'611.4
2018-Jun-22 15:01N 38°22' W 009°15'610.9
2018-Jun-22 14:30N 38°27' W 009°18'611.4
2018-Jun-22 13:57N 38°32' W 009°21'511.5
2018-Jun-22 13:29N 38°38' W 009°22'611.8
2018-Jun-22 13:00N 38°41' W 009°16'612.0
2018-Jun-22 12:30N 38°42' W 009°08'2 0.5
2018-Jun-22 09:25N 38°43' W 009°07'0 0.5
2018-Jun-22 09:00N 38°43' W 009°07'1 1.4
2018-Jun-22 08:28N 38°42' W 009°07'0 0.0
2018-Jun-22 07:55N 38°42' W 009°07'0 0.0
2018-Jun-22 07:28N 38°42' W 009°07'0 0.0
2018-Jun-22 06:58N 38°42' W 009°07'0 0.0
2018-Jun-22 06:28N 38°42' W 009°07'0 0.1
2018-Jun-22 05:58N 38°42' W 009°07'0 0.2
2018-Jun-22 05:28N 38°42' W 009°07'0 0.0
2018-Jun-22 04:46N 38°42' W 009°07'0 0.0
2018-Jun-22 04:25N 38°42' W 009°07'0 0.0
2018-Jun-22 03:58N 38°42' W 009°07'0 0.0
2018-Jun-22 03:28N 38°42' W 009°07'1 2.6
2018-Jun-22 03:00N 38°44' W 009°06'1 1.4
2018-Jun-22 02:29N 38°44' W 009°06'0 0.0
2018-Jun-22 01:56N 38°44' W 009°06'0 0.0
2018-Jun-22 01:29N 38°44' W 009°06'0 0.0
2018-Jun-22 00:59N 38°44' W 009°06'0 0.0
2018-Jun-22 00:26N 38°44' W 009°06'0 0.0
2018-Jun-21 23:56N 38°44' W 009°06'0 0.0
2018-Jun-21 23:30N 38°44' W 009°06'2 3.4
2018-Jun-21 23:00N 38°43' W 009°07'0 0.3
2018-Jun-21 22:21N 38°42' W 009°06'0 0.0
2018-Jun-21 21:57N 38°42' W 009°06'0 0.0
2018-Jun-21 21:30N 38°42' W 009°06'0 0.0
2018-Jun-21 20:57N 38°42' W 009°06'0 0.0
2018-Jun-21 20:30N 38°42' W 009°06'0 0.0
2018-Jun-21 20:00N 38°42' W 009°06'0 0.0
2018-Jun-21 19:30N 38°42' W 009°06'0 0.0
2018-Jun-21 18:57N 38°42' W 009°06'1 1.8
2018-Jun-21 18:30N 38°43' W 009°07'0 0.3
2018-Jun-21 17:55N 38°43' W 009°07'0 0.0
2018-Jun-21 17:07N 38°43' W 009°07'0 0.0
2018-Jun-21 16:58N 38°43' W 009°07'0 0.0
2018-Jun-21 16:25N 38°43' W 009°07'0 0.0
2018-Jun-21 15:58N 38°43' W 009°07'0 0.0
2018-Jun-21 15:16N 38°43' W 009°07'0 0.0
2018-Jun-21 15:00N 38°43' W 009°07'0 0.5
2018-Jun-21 14:30N 38°43' W 009°07'1 1.9
2018-Jun-21 14:00N 38°42' W 009°07'4 8.4
2018-Jun-21 13:30N 38°41' W 009°12'0 0.1
2018-Jun-21 08:49N 38°41' W 009°13'0 0.0
2018-Jun-21 05:34N 38°41' W 009°13'0 0.0
2018-Jun-21 05:10N 38°41' W 009°13'0 0.0
2018-Jun-21 04:58N 38°41' W 009°13'0 0.0
2018-Jun-21 04:28N 38°41' W 009°13'0 0.0
2018-Jun-21 03:55N 38°41' W 009°13'0 0.0
2018-Jun-21 01:58N 38°41' W 009°13'0 0.0
2018-Jun-21 00:07N 38°41' W 009°13'0 0.0
2018-Jun-20 22:52N 38°41' W 009°13'0 0.0
2018-Jun-20 20:34N 38°41' W 009°13'0 0.0
2018-Jun-20 20:10N 38°41' W 009°13'0 0.0
2018-Jun-20 19:40N 38°41' W 009°13'0 0.0
2018-Jun-20 18:52N 38°41' W 009°13'0 0.0
2018-Jun-20 18:28N 38°41' W 009°13'0 0.0
2018-Jun-20 16:58N 38°41' W 009°13'0 0.0
2018-Jun-20 15:58N 38°41' W 009°13'0 0.0
2018-Jun-20 15:10N 38°41' W 009°13'0 0.0
2018-Jun-20 12:10N 38°41' W 009°13'0 0.0
2018-Jun-20 11:49N 38°41' W 009°13'0 0.0
2018-Jun-20 09:16N 38°41' W 009°13'0 1.0
2018-Jun-20 09:00N 38°41' W 009°13'1 1.5
2018-Jun-20 08:22N 38°41' W 009°11'0 0.0
2018-Jun-20 06:58N 38°41' W 009°11'0 0.0
2018-Jun-20 05:43N 38°41' W 009°11'0 0.1
2018-Jun-20 04:55N 38°41' W 009°11'0 0.1
2018-Jun-20 03:55N 38°41' W 009°11'0 0.1
2018-Jun-20 03:01N 38°41' W 009°12'0 0.0
2018-Jun-20 02:04N 38°41' W 009°12'0 0.0
2018-Jun-20 01:55N 38°41' W 009°12'0 0.0
2018-Jun-20 00:58N 38°41' W 009°12'0 0.0
2018-Jun-20 00:28N 38°41' W 009°12'0 0.0
2018-Jun-19 22:37N 38°41' W 009°12'0 0.0
2018-Jun-19 22:28N 38°41' W 009°12'0 0.0
2018-Jun-19 21:04N 38°41' W 009°11'0 0.1
2018-Jun-19 18:55N 38°41' W 009°11'0 0.0
2018-Jun-19 16:31N 38°41' W 009°11'0 0.0
2018-Jun-19 16:07N 38°41' W 009°11'0 0.0
2018-Jun-19 15:07N 38°41' W 009°11'1 3.2
2018-Jun-19 14:56N 38°41' W 009°11'5 0.7
2018-Jun-19 08:21N 38°44' W 009°06'1 2.2
2018-Jun-19 07:58N 38°43' W 009°06'4 8.9
2018-Jun-19 07:30N 38°41' W 009°11'2 3.2
2018-Jun-19 07:00N 38°41' W 009°13'0 0.0
2018-Jun-19 06:26N 38°41' W 009°13'0 0.0
2018-Jun-19 05:56N 38°41' W 009°13'0 0.0
2018-Jun-19 05:14N 38°41' W 009°13'0 0.0
2018-Jun-19 04:56N 38°41' W 009°13'0 0.0
2018-Jun-19 03:44N 38°41' W 009°13'0 0.0
2018-Jun-19 02:32N 38°41' W 009°13'0 0.0
2018-Jun-19 02:20N 38°41' W 009°13'0 0.0
2018-Jun-19 01:56N 38°41' W 009°13'0 0.0
2018-Jun-18 23:22N 38°41' W 009°13'1 3.3
2018-Jun-18 22:59N 38°41' W 009°11'2 5.2
2018-Jun-18 22:30N 38°40' W 009°08'0 0.9
2018-Jun-18 22:00N 38°40' W 009°09'0 0.0
2018-Jun-18 21:29N 38°40' W 009°09'0 0.0
2018-Jun-18 20:59N 38°40' W 009°09'0 0.0
2018-Jun-18 20:30N 38°40' W 009°09'0 0.0
2018-Jun-18 20:00N 38°40' W 009°09'0 0.0
2018-Jun-18 19:29N 38°40' W 009°09'0 0.0
2018-Jun-18 19:00N 38°40' W 009°09'0 0.0
2018-Jun-18 18:30N 38°40' W 009°09'0 0.7
2018-Jun-18 18:00N 38°40' W 009°09'1 2.5
2018-Jun-18 17:29N 38°41' W 009°09'2 0.3
2018-Jun-18 12:20N 38°41' W 009°11'0 0.0
2018-Jun-18 12:00N 38°41' W 009°11'2 3.9
2018-Jun-18 11:30N 38°41' W 009°14'0 0.7
2018-Jun-18 10:52N 38°41' W 009°14'0 0.0
2018-Jun-18 10:19N 38°41' W 009°14'0 0.0
2018-Jun-18 09:55N 38°41' W 009°14'0 0.0
2018-Jun-18 09:10N 38°41' W 009°14'0 0.0
2018-Jun-18 08:49N 38°41' W 009°14'0 0.0
2018-Jun-18 08:30N 38°41' W 009°14'0 0.2
2018-Jun-18 08:00N 38°41' W 009°14'0 0.1
2018-Jun-18 07:30N 38°41' W 009°14'2 3.9
2018-Jun-18 07:00N 38°41' W 009°12'0 0.1
2018-Jun-18 06:18N 38°41' W 009°12'0 0.0
2018-Jun-18 05:48N 38°41' W 009°12'0 0.0
2018-Jun-18 05:00N 38°41' W 009°12'0 0.0
2018-Jun-18 04:30N 38°41' W 009°12'0 0.0
2018-Jun-17 23:48N 38°41' W 009°12'0 0.0
2018-Jun-17 22:48N 38°41' W 009°12'0 0.0
2018-Jun-17 22:18N 38°41' W 009°12'0 0.0
2018-Jun-17 22:00N 38°41' W 009°12'0 0.0
2018-Jun-17 21:30N 38°41' W 009°12'0 0.0
2018-Jun-17 20:36N 38°41' W 009°12'0 0.3
2018-Jun-17 20:30N 38°41' W 009°12'0 0.9
2018-Jun-17 20:00N 38°41' W 009°13'0 0.3
2018-Jun-17 19:00N 38°41' W 009°13'0 0.0
2018-Jun-17 18:27N 38°41' W 009°13'0 0.0
2018-Jun-17 15:57N 38°41' W 009°13'0 0.1
2018-Jun-17 15:28N 38°41' W 009°13'1 1.4
2018-Jun-17 15:00N 38°41' W 009°12'1 1.2
2018-Jun-17 14:28N 38°41' W 009°11'0 0.1
2018-Jun-17 13:58N 38°41' W 009°11'0 0.1
2018-Jun-17 10:04N 38°41' W 009°11'0 0.0
2018-Jun-17 08:46N 38°41' W 009°11'0 0.1
2018-Jun-17 08:24N 38°41' W 009°11'0 0.3
2018-Jun-17 08:00N 38°41' W 009°11'0 0.7
2018-Jun-17 07:30N 38°41' W 009°12'0 0.0
2018-Jun-17 04:19N 38°41' W 009°12'0 0.0
2018-Jun-17 00:01N 38°41' W 009°12'0 0.2
2018-Jun-16 23:58N 38°41' W 009°12'0 0.2
2018-Jun-16 23:30N 38°41' W 009°12'0 0.2
2018-Jun-16 21:44N 38°41' W 009°12'0 0.0
2018-Jun-16 21:17N 38°41' W 009°12'0 0.1
2018-Jun-16 20:53N 38°41' W 009°12'0 0.0
2018-Jun-16 20:20N 38°41' W 009°12'0 0.0
2018-Jun-16 19:50N 38°41' W 009°12'0 0.1
2018-Jun-16 19:14N 38°41' W 009°12'0 0.1
2018-Jun-16 18:59N 38°41' W 009°12'0 0.1
2018-Jun-16 18:29N 38°41' W 009°11'0 0.8
2018-Jun-16 18:00N 38°41' W 009°12'0 0.7
2018-Jun-16 17:23N 38°41' W 009°12'1 1.9
2018-Jun-16 16:52N 38°41' W 009°11'0 0.4
2018-Jun-16 16:28N 38°41' W 009°11'0 0.1
2018-Jun-16 15:40N 38°41' W 009°11'0 0.1
2018-Jun-16 15:28N 38°41' W 009°11'0 0.0
2018-Jun-16 14:09N 38°41' W 009°11'0 0.0
2018-Jun-16 13:48N 38°41' W 009°11'0 0.0
2018-Jun-16 13:24N 38°41' W 009°11'0 0.0
2018-Jun-16 12:48N 38°41' W 009°11'0 0.1
2018-Jun-16 11:36N 38°41' W 009°11'0 0.2
2018-Jun-16 11:30N 38°41' W 009°11'1 0.5
2018-Jun-16 10:09N 38°41' W 009°12'0 0.0
2018-Jun-16 09:39N 38°41' W 009°12'0 0.1
2018-Jun-16 09:27N 38°41' W 009°12'0 0.1
2018-Jun-16 09:00N 38°41' W 009°12'0 0.0
2018-Jun-16 08:12N 38°41' W 009°12'0 0.1
2018-Jun-16 08:00N 38°41' W 009°12'0 0.1
2018-Jun-16 07:24N 38°41' W 009°12'0 0.1
2018-Jun-16 07:00N 38°41' W 009°12'0 0.1
2018-Jun-16 06:27N 38°41' W 009°12'0 0.1
2018-Jun-16 05:48N 38°41' W 009°12'0 0.1
2018-Jun-16 05:30N 38°41' W 009°12'0 0.1
2018-Jun-16 04:48N 38°41' W 009°12'0 0.1
2018-Jun-16 04:30N 38°41' W 009°12'0 0.1
2018-Jun-16 03:24N 38°41' W 009°12'0 0.0
2018-Jun-16 02:24N 38°41' W 009°12'0 0.0
2018-Jun-16 02:00N 38°41' W 009°12'0 0.0
2018-Jun-16 01:06N 38°41' W 009°12'0 0.0
2018-Jun-16 01:00N 38°41' W 009°12'0 0.0
2018-Jun-16 00:30N 38°41' W 009°12'0 0.0
2018-Jun-15 23:48N 38°41' W 009°12'0 0.1
2018-Jun-15 22:06N 38°41' W 009°12'0 0.2
2018-Jun-15 21:54N 38°41' W 009°12'0 1.0
2018-Jun-15 21:30N 38°41' W 009°11'0 0.4
2018-Jun-15 20:47N 38°41' W 009°11'0 0.0
2018-Jun-15 20:29N 38°41' W 009°11'0 0.0
2018-Jun-15 19:58N 38°41' W 009°11'0 0.0
2018-Jun-15 19:27N 38°41' W 009°11'0 0.0
2018-Jun-15 18:53N 38°41' W 009°11'0 0.1
2018-Jun-15 18:28N 38°41' W 009°11'0 0.2
2018-Jun-15 18:00N 38°41' W 009°11'0 0.3
2018-Jun-15 17:29N 38°41' W 009°11'1 2.3
2018-Jun-15 16:59N 38°42' W 009°10'0 0.1
2018-Jun-15 16:29N 38°42' W 009°10'0 0.0
2018-Jun-15 14:59N 38°42' W 009°10'0 0.0
2018-Jun-15 13:29N 38°42' W 009°10'0 0.0
2018-Jun-15 12:53N 38°42' W 009°10'0 0.0
2018-Jun-15 10:59N 38°42' W 009°10'0 0.0
2018-Jun-15 09:44N 38°42' W 009°10'0 0.0
2018-Jun-15 08:32N 38°42' W 009°10'0 0.2
2018-Jun-15 08:30N 38°42' W 009°10'0 0.2
2018-Jun-15 07:56N 38°42' W 009°11'2 3.5
2018-Jun-15 07:29N 38°41' W 009°13'1 1.4
2018-Jun-15 07:01N 38°41' W 009°13'0 0.0
2018-Jun-15 06:20N 38°41' W 009°13'0 0.0
2018-Jun-15 05:56N 38°41' W 009°13'0 0.0
2018-Jun-15 05:29N 38°41' W 009°13'0 0.0
2018-Jun-15 04:51N 38°41' W 009°13'0 0.0
2018-Jun-15 04:29N 38°41' W 009°13'0 0.0
2018-Jun-15 03:57N 38°41' W 009°13'0 0.0
2018-Jun-15 03:27N 38°41' W 009°13'0 0.0
2018-Jun-15 02:56N 38°41' W 009°13'0 0.0
2018-Jun-15 02:21N 38°41' W 009°13'0 0.0
2018-Jun-15 01:48N 38°41' W 009°13'0 0.0
2018-Jun-15 01:30N 38°41' W 009°13'0 0.0
2018-Jun-15 00:58N 38°41' W 009°13'0 0.0
2018-Jun-15 00:30N 38°41' W 009°13'0 0.0
2018-Jun-15 00:00N 38°41' W 009°13'0 0.0
2018-Jun-14 23:29N 38°41' W 009°13'0 0.0
2018-Jun-14 22:59N 38°41' W 009°13'0 0.0
2018-Jun-14 22:29N 38°41' W 009°13'0 0.0
2018-Jun-14 22:00N 38°41' W 009°13'0 0.0
2018-Jun-14 21:23N 38°41' W 009°13'0 0.0
2018-Jun-14 21:00N 38°41' W 009°13'0 0.0
2018-Jun-14 20:29N 38°41' W 009°13'0 0.0
2018-Jun-14 19:59N 38°41' W 009°13'0 0.0
2018-Jun-14 19:29N 38°41' W 009°13'0 0.0
2018-Jun-14 18:59N 38°41' W 009°13'0 0.0
2018-Jun-14 18:29N 38°41' W 009°13'0 0.0
2018-Jun-14 17:59N 38°41' W 009°13'0 0.0
2018-Jun-14 17:29N 38°41' W 009°13'0 0.0
2018-Jun-14 16:59N 38°41' W 009°13'0 0.0
2018-Jun-14 16:30N 38°41' W 009°13'0 0.0
2018-Jun-14 16:00N 38°41' W 009°13'0 0.0
2018-Jun-14 15:30N 38°41' W 009°13'0 0.6
2018-Jun-14 15:01N 38°41' W 009°13'1 1.2
2018-Jun-14 14:11N 38°41' W 009°14'0 0.0
2018-Jun-14 13:53N 38°41' W 009°14'0 0.0
2018-Jun-14 13:26N 38°41' W 009°14'0 0.0
2018-Jun-14 11:32N 38°41' W 009°14'0 0.0
2018-Jun-14 11:05N 38°41' W 009°14'0 0.0
2018-Jun-14 10:53N 38°41' W 009°14'0 0.0
2018-Jun-14 10:17N 38°41' W 009°14'0 0.0
2018-Jun-14 09:53N 38°41' W 009°14'0 0.0
2018-Jun-14 09:11N 38°41' W 009°14'0 0.0
2018-Jun-14 08:50N 38°41' W 009°14'0 0.0
2018-Jun-14 08:05N 38°41' W 009°14'0 0.0
2018-Jun-14 07:42N 38°41' W 009°14'0 1.3
2018-Jun-14 07:29N 38°41' W 009°15'2 3.0
2018-Jun-14 06:47N 38°41' W 009°12'0 0.0
2018-Jun-14 06:29N 38°41' W 009°12'0 0.0
2018-Jun-14 05:47N 38°41' W 009°12'0 0.0
2018-Jun-14 05:29N 38°41' W 009°12'0 0.1
2018-Jun-14 04:59N 38°41' W 009°12'0 0.1
2018-Jun-14 04:17N 38°41' W 009°12'0 0.2
2018-Jun-14 03:53N 38°41' W 009°12'0 0.2
2018-Jun-14 03:23N 38°41' W 009°12'0 0.0
2018-Jun-14 02:53N 38°41' W 009°12'0 0.0
2018-Jun-14 02:17N 38°41' W 009°12'0 0.1
2018-Jun-14 01:56N 38°41' W 009°12'0 0.0
2018-Jun-14 01:11N 38°41' W 009°12'0 0.1
2018-Jun-14 00:56N 38°41' W 009°12'0 0.0
2018-Jun-13 23:59N 38°41' W 009°12'0 0.1
2018-Jun-13 23:20N 38°41' W 009°12'1 1.7
2018-Jun-13 22:59N 38°41' W 009°11'4 8.3
2018-Jun-13 22:30N 38°43' W 009°07'0 0.2
2018-Jun-13 21:10N 38°43' W 009°07'0 0.0
2018-Jun-13 20:58N 38°43' W 009°07'0 0.0
2018-Jun-13 20:28N 38°43' W 009°07'0 0.0
2018-Jun-13 19:58N 38°43' W 009°07'0 0.0
2018-Jun-13 19:28N 38°43' W 009°07'0 0.0
2018-Jun-13 18:59N 38°43' W 009°07'0 0.1
2018-Jun-13 18:31N 38°43' W 009°07'0 0.1
2018-Jun-13 17:56N 38°43' W 009°07'0 0.0
2018-Jun-13 17:29N 38°43' W 009°07'0 0.0
2018-Jun-13 16:53N 38°43' W 009°07'  
Track history (hours):
 
Tides and Currents Weather Stations Pressure Air Temp Water Temp Dewpoint Dewpoint Depression Visibility Wind Speed Wind Dir Waves Ship Positions

Guanarteme

Last reported at 2018-Jun-23 16:35 UTC. Time now 2018-Jun-23 23:39 UTC.
Position N 38°41' W 009°13'.

Length 96 m; draft 5.5 m.

Type: Ship. MMSI: 224365000.

Date/timePositionNaut miles runAvg speedWind from/ knotsBaromVisibWave heightAir tempDewpointWater temp
2018-Jun-23 16:35N 38°41' W 009°13'0 0.0
2018-Jun-23 16:30N 38°41' W 009°13'0 0.0
2018-Jun-23 16:00N 38°41' W 009°13'2 4.1
2018-Jun-23 15:26N 38°42' W 009°10'2 5.7
2018-Jun-23 15:01N 38°43' W 009°07'1 1.5
2018-Jun-23 14:30N 38°43' W 009°07'0 0.0
2018-Jun-23 14:00N 38°43' W 009°07'0 0.0
2018-Jun-23 13:30N 38°43' W 009°07'0 0.0
2018-Jun-23 12:57N 38°43' W 009°07'0 0.0
2018-Jun-23 12:30N 38°43' W 009°07'0 0.0
2018-Jun-23 11:57N 38°43' W 009°07'0 0.7
2018-Jun-23 11:31N 38°43' W 009°06'5 9.1
2018-Jun-23 10:57N 38°41' W 009°12'4 9.6
2018-Jun-23 10:31N 38°41' W 009°18'611.4
2018-Jun-23 10:01N 38°36' W 009°22'612.1
2018-Jun-23 09:31N 38°30' W 009°20'611.7
2018-Jun-23 09:01N 38°25' W 009°18'510.7
2018-Jun-23 08:30N 38°21' W 009°13'611.4
2018-Jun-23 08:00N 38°24' W 009°06'612.0
2018-Jun-23 07:30N 38°26' W 008°59'5 9.8
2018-Jun-23 06:58N 38°30' W 008°55'2 3.9
2018-Jun-23 06:31N 38°31' W 008°53'0 0.0
2018-Jun-23 05:55N 38°31' W 008°53'0 0.0
2018-Jun-23 05:28N 38°31' W 008°53'0 0.0
2018-Jun-23 04:58N 38°31' W 008°53'0 0.0
2018-Jun-23 04:25N 38°31' W 008°53'0 0.0
2018-Jun-23 03:58N 38°31' W 008°53'0 0.0
2018-Jun-23 02:49N 38°31' W 008°53'0 0.0
2018-Jun-23 02:25N 38°31' W 008°53'0 0.0
2018-Jun-23 01:58N 38°31' W 008°53'0 0.0
2018-Jun-23 01:28N 38°31' W 008°53'0 0.0
2018-Jun-23 00:58N 38°31' W 008°53'0 0.0
2018-Jun-23 00:28N 38°31' W 008°53'0 0.0
2018-Jun-22 23:55N 38°31' W 008°53'0 0.0
2018-Jun-22 23:28N 38°31' W 008°53'0 0.0
2018-Jun-22 22:58N 38°31' W 008°53'0 0.0
2018-Jun-22 22:28N 38°31' W 008°53'0 0.0
2018-Jun-22 21:58N 38°31' W 008°53'0 0.0
2018-Jun-22 21:28N 38°31' W 008°53'0 0.0
2018-Jun-22 20:52N 38°31' W 008°53'0 0.0
2018-Jun-22 20:28N 38°31' W 008°53'0 0.0
2018-Jun-22 19:52N 38°31' W 008°53'0 0.0
2018-Jun-22 19:16N 38°31' W 008°53'2 1.2
2018-Jun-22 17:15N 38°30' W 008°55'310.0
2018-Jun-22 17:00N 38°28' W 008°57'4 7.8
2018-Jun-22 16:30N 38°24' W 008°58'3 5.6
2018-Jun-22 16:00N 38°22' W 009°01'510.8
2018-Jun-22 15:30N 38°21' W 009°07'611.4
2018-Jun-22 15:01N 38°22' W 009°15'610.9
2018-Jun-22 14:30N 38°27' W 009°18'611.4
2018-Jun-22 13:57N 38°32' W 009°21'511.5
2018-Jun-22 13:29N 38°38' W 009°22'611.8
2018-Jun-22 13:00N 38°41' W 009°16'612.0
2018-Jun-22 12:30N 38°42' W 009°08'2 0.5
2018-Jun-22 09:25N 38°43' W 009°07'0 0.5
2018-Jun-22 09:00N 38°43' W 009°07'1 1.4
2018-Jun-22 08:28N 38°42' W 009°07'0 0.0
2018-Jun-22 07:55N 38°42' W 009°07'0 0.0
2018-Jun-22 07:28N 38°42' W 009°07'0 0.0
2018-Jun-22 06:58N 38°42' W 009°07'0 0.0
2018-Jun-22 06:28N 38°42' W 009°07'0 0.1
2018-Jun-22 05:58N 38°42' W 009°07'0 0.2
2018-Jun-22 05:28N 38°42' W 009°07'0 0.0
2018-Jun-22 04:46N 38°42' W 009°07'0 0.0
2018-Jun-22 04:25N 38°42' W 009°07'0 0.0
2018-Jun-22 03:58N 38°42' W 009°07'0 0.0
2018-Jun-22 03:28N 38°42' W 009°07'1 2.6
2018-Jun-22 03:00N 38°44' W 009°06'1 1.4
2018-Jun-22 02:29N 38°44' W 009°06'0 0.0
2018-Jun-22 01:56N 38°44' W 009°06'0 0.0
2018-Jun-22 01:29N 38°44' W 009°06'0 0.0
2018-Jun-22 00:59N 38°44' W 009°06'0 0.0
2018-Jun-22 00:26N 38°44' W 009°06'0 0.0
2018-Jun-21 23:56N 38°44' W 009°06'0 0.0
2018-Jun-21 23:30N 38°44' W 009°06'2 3.4
2018-Jun-21 23:00N 38°43' W 009°07'0 0.3
2018-Jun-21 22:21N 38°42' W 009°06'0 0.0
2018-Jun-21 21:57N 38°42' W 009°06'0 0.0
2018-Jun-21 21:30N 38°42' W 009°06'0 0.0
2018-Jun-21 20:57N 38°42' W 009°06'0 0.0
2018-Jun-21 20:30N 38°42' W 009°06'0 0.0
2018-Jun-21 20:00N 38°42' W 009°06'0 0.0
2018-Jun-21 19:30N 38°42' W 009°06'0 0.0
2018-Jun-21 18:57N 38°42' W 009°06'1 1.8
2018-Jun-21 18:30N 38°43' W 009°07'0 0.3
2018-Jun-21 17:55N 38°43' W 009°07'0 0.0
2018-Jun-21 17:07N 38°43' W 009°07'0 0.0
2018-Jun-21 16:58N 38°43' W 009°07'0 0.0
2018-Jun-21 16:25N 38°43' W 009°07'0 0.0
2018-Jun-21 15:58N 38°43' W 009°07'0 0.0
2018-Jun-21 15:16N 38°43' W 009°07'0 0.0
2018-Jun-21 15:00N 38°43' W 009°07'0 0.5
2018-Jun-21 14:30N 38°43' W 009°07'1 1.9
2018-Jun-21 14:00N 38°42' W 009°07'4 8.4
2018-Jun-21 13:30N 38°41' W 009°12'0 0.1
2018-Jun-21 08:49N 38°41' W 009°13'0 0.0
2018-Jun-21 05:34N 38°41' W 009°13'0 0.0
2018-Jun-21 05:10N 38°41' W 009°13'0 0.0
2018-Jun-21 04:58N 38°41' W 009°13'0 0.0
2018-Jun-21 04:28N 38°41' W 009°13'0 0.0
2018-Jun-21 03:55N 38°41' W 009°13'0 0.0
2018-Jun-21 01:58N 38°41' W 009°13'0 0.0
2018-Jun-21 00:07N 38°41' W 009°13'0 0.0
2018-Jun-20 22:52N 38°41' W 009°13'0 0.0
2018-Jun-20 20:34N 38°41' W 009°13'0 0.0
2018-Jun-20 20:10N 38°41' W 009°13'0 0.0
2018-Jun-20 19:40N 38°41' W 009°13'0 0.0
2018-Jun-20 18:52N 38°41' W 009°13'0 0.0
2018-Jun-20 18:28N 38°41' W 009°13'0 0.0
2018-Jun-20 16:58N 38°41' W 009°13'0 0.0
2018-Jun-20 15:58N 38°41' W 009°13'0 0.0
2018-Jun-20 15:10N 38°41' W 009°13'0 0.0
2018-Jun-20 12:10N 38°41' W 009°13'0 0.0
2018-Jun-20 11:49N 38°41' W 009°13'0 0.0
2018-Jun-20 09:16N 38°41' W 009°13'0 1.0
2018-Jun-20 09:00N 38°41' W 009°13'1 1.5
2018-Jun-20 08:22N 38°41' W 009°11'0 0.0
2018-Jun-20 06:58N 38°41' W 009°11'0 0.0
2018-Jun-20 05:43N 38°41' W 009°11'0 0.1
2018-Jun-20 04:55N 38°41' W 009°11'0 0.1
2018-Jun-20 03:55N 38°41' W 009°11'0 0.1
2018-Jun-20 03:01N 38°41' W 009°12'0 0.0
2018-Jun-20 02:04N 38°41' W 009°12'0 0.0
2018-Jun-20 01:55N 38°41' W 009°12'0 0.0
2018-Jun-20 00:58N 38°41' W 009°12'0 0.0
2018-Jun-20 00:28N 38°41' W 009°12'0 0.0
2018-Jun-19 22:37N 38°41' W 009°12'0 0.0
2018-Jun-19 22:28N 38°41' W 009°12'0 0.0
2018-Jun-19 21:04N 38°41' W 009°11'0 0.1
2018-Jun-19 18:55N 38°41' W 009°11'0 0.0
2018-Jun-19 16:31N 38°41' W 009°11'0 0.0
2018-Jun-19 16:07N 38°41' W 009°11'0 0.0
2018-Jun-19 15:07N 38°41' W 009°11'1 3.2
2018-Jun-19 14:56N 38°41' W 009°11'5 0.7
2018-Jun-19 08:21N 38°44' W 009°06'1 2.2
2018-Jun-19 07:58N 38°43' W 009°06'4 8.9
2018-Jun-19 07:30N 38°41' W 009°11'2 3.2
2018-Jun-19 07:00N 38°41' W 009°13'0 0.0
2018-Jun-19 06:26N 38°41' W 009°13'0 0.0
2018-Jun-19 05:56N 38°41' W 009°13'0 0.0
2018-Jun-19 05:14N 38°41' W 009°13'0 0.0
2018-Jun-19 04:56N 38°41' W 009°13'0 0.0
2018-Jun-19 03:44N 38°41' W 009°13'0 0.0
2018-Jun-19 02:32N 38°41' W 009°13'0 0.0
2018-Jun-19 02:20N 38°41' W 009°13'0 0.0
2018-Jun-19 01:56N 38°41' W 009°13'0 0.0
2018-Jun-18 23:22N 38°41' W 009°13'1 3.3
2018-Jun-18 22:59N 38°41' W 009°11'2 5.2
2018-Jun-18 22:30N 38°40' W 009°08'0 0.9
2018-Jun-18 22:00N 38°40' W 009°09'0 0.0
2018-Jun-18 21:29N 38°40' W 009°09'0 0.0
2018-Jun-18 20:59N 38°40' W 009°09'0 0.0
2018-Jun-18 20:30N 38°40' W 009°09'0 0.0
2018-Jun-18 20:00N 38°40' W 009°09'0 0.0
2018-Jun-18 19:29N 38°40' W 009°09'0 0.0
2018-Jun-18 19:00N 38°40' W 009°09'0 0.0
2018-Jun-18 18:30N 38°40' W 009°09'0 0.7
2018-Jun-18 18:00N 38°40' W 009°09'1 2.5
2018-Jun-18 17:29N 38°41' W 009°09'2 0.3
2018-Jun-18 12:20N 38°41' W 009°11'0 0.0
2018-Jun-18 12:00N 38°41' W 009°11'2 3.9
2018-Jun-18 11:30N 38°41' W 009°14'0 0.7
2018-Jun-18 10:52N 38°41' W 009°14'0 0.0
2018-Jun-18 10:19N 38°41' W 009°14'0 0.0
2018-Jun-18 09:55N 38°41' W 009°14'0 0.0
2018-Jun-18 09:10N 38°41' W 009°14'0 0.0
2018-Jun-18 08:49N 38°41' W 009°14'0 0.0
2018-Jun-18 08:30N 38°41' W 009°14'0 0.2
2018-Jun-18 08:00N 38°41' W 009°14'0 0.1
2018-Jun-18 07:30N 38°41' W 009°14'2 3.9
2018-Jun-18 07:00N 38°41' W 009°12'0 0.1
2018-Jun-18 06:18N 38°41' W 009°12'0 0.0
2018-Jun-18 05:48N 38°41' W 009°12'0 0.0
2018-Jun-18 05:00N 38°41' W 009°12'0 0.0
2018-Jun-18 04:30N 38°41' W 009°12'0 0.0
2018-Jun-17 23:48N 38°41' W 009°12'0 0.0
2018-Jun-17 22:48N 38°41' W 009°12'0 0.0
2018-Jun-17 22:18N 38°41' W 009°12'0 0.0
2018-Jun-17 22:00N 38°41' W 009°12'0 0.0
2018-Jun-17 21:30N 38°41' W 009°12'0 0.0
2018-Jun-17 20:36N 38°41' W 009°12'0 0.3
2018-Jun-17 20:30N 38°41' W 009°12'0 0.9
2018-Jun-17 20:00N 38°41' W 009°13'0 0.3
2018-Jun-17 19:00N 38°41' W 009°13'0 0.0
2018-Jun-17 18:27N 38°41' W 009°13'0 0.0
2018-Jun-17 15:57N 38°41' W 009°13'0 0.1
2018-Jun-17 15:28N 38°41' W 009°13'1 1.4
2018-Jun-17 15:00N 38°41' W 009°12'1 1.2
2018-Jun-17 14:28N 38°41' W 009°11'0 0.1
2018-Jun-17 13:58N 38°41' W 009°11'0 0.1
2018-Jun-17 10:04N 38°41' W 009°11'0 0.0
2018-Jun-17 08:46N 38°41' W 009°11'0 0.1
2018-Jun-17 08:24N 38°41' W 009°11'0 0.3
2018-Jun-17 08:00N 38°41' W 009°11'0 0.7
2018-Jun-17 07:30N 38°41' W 009°12'0 0.0
2018-Jun-17 04:19N 38°41' W 009°12'0 0.0
2018-Jun-17 00:01N 38°41' W 009°12'0 0.2
2018-Jun-16 23:58N 38°41' W 009°12'0 0.2
2018-Jun-16 23:30N 38°41' W 009°12'0 0.2
2018-Jun-16 21:44N 38°41' W 009°12'0 0.0
2018-Jun-16 21:17N 38°41' W 009°12'0 0.1
2018-Jun-16 20:53N 38°41' W 009°12'0 0.0
2018-Jun-16 20:20N 38°41' W 009°12'0 0.0
2018-Jun-16 19:50N 38°41' W 009°12'0 0.1
2018-Jun-16 19:14N 38°41' W 009°12'0 0.1
2018-Jun-16 18:59N 38°41' W 009°12'0 0.1
2018-Jun-16 18:29N 38°41' W 009°11'0 0.8
2018-Jun-16 18:00N 38°41' W 009°12'0 0.7
2018-Jun-16 17:23N 38°41' W 009°12'1 1.9
2018-Jun-16 16:52N 38°41' W 009°11'0 0.4
2018-Jun-16 16:28N 38°41' W 009°11'0 0.1
2018-Jun-16 15:40N 38°41' W 009°11'0 0.1
2018-Jun-16 15:28N 38°41' W 009°11'0 0.0
2018-Jun-16 14:09N 38°41' W 009°11'0 0.0
2018-Jun-16 13:48N 38°41' W 009°11'0 0.0
2018-Jun-16 13:24N 38°41' W 009°11'0 0.0
2018-Jun-16 12:48N 38°41' W 009°11'0 0.1
2018-Jun-16 11:36N 38°41' W 009°11'0 0.2
2018-Jun-16 11:30N 38°41' W 009°11'1 0.5
2018-Jun-16 10:09N 38°41' W 009°12'0 0.0
2018-Jun-16 09:39N 38°41' W 009°12'0 0.1
2018-Jun-16 09:27N 38°41' W 009°12'0 0.1
2018-Jun-16 09:00N 38°41' W 009°12'0 0.0
2018-Jun-16 08:12N 38°41' W 009°12'0 0.1
2018-Jun-16 08:00N 38°41' W 009°12'0 0.1
2018-Jun-16 07:24N 38°41' W 009°12'0 0.1
2018-Jun-16 07:00N 38°41' W 009°12'0 0.1
2018-Jun-16 06:27N 38°41' W 009°12'0 0.1
2018-Jun-16 05:48N 38°41' W 009°12'0 0.1
2018-Jun-16 05:30N 38°41' W 009°12'0 0.1
2018-Jun-16 04:48N 38°41' W 009°12'0 0.1
2018-Jun-16 04:30N 38°41' W 009°12'0 0.1
2018-Jun-16 03:24N 38°41' W 009°12'0 0.0
2018-Jun-16 02:24N 38°41' W 009°12'0 0.0
2018-Jun-16 02:00N 38°41' W 009°12'0 0.0
2018-Jun-16 01:06N 38°41' W 009°12'0 0.0
2018-Jun-16 01:00N 38°41' W 009°12'0 0.0
2018-Jun-16 00:30N 38°41' W 009°12'0 0.0
2018-Jun-15 23:48N 38°41' W 009°12'0 0.1
2018-Jun-15 22:06N 38°41' W 009°12'0 0.2
2018-Jun-15 21:54N 38°41' W 009°12'0 1.0
2018-Jun-15 21:30N 38°41' W 009°11'0 0.4
2018-Jun-15 20:47N 38°41' W 009°11'0 0.0
2018-Jun-15 20:29N 38°41' W 009°11'0 0.0
2018-Jun-15 19:58N 38°41' W 009°11'0 0.0
2018-Jun-15 19:27N 38°41' W 009°11'0 0.0
2018-Jun-15 18:53N 38°41' W 009°11'0 0.1
2018-Jun-15 18:28N 38°41' W 009°11'0 0.2
2018-Jun-15 18:00N 38°41' W 009°11'0 0.3
2018-Jun-15 17:29N 38°41' W 009°11'1 2.3
2018-Jun-15 16:59N 38°42' W 009°10'0 0.1
2018-Jun-15 16:29N 38°42' W 009°10'0 0.0
2018-Jun-15 14:59N 38°42' W 009°10'0 0.0
2018-Jun-15 13:29N 38°42' W 009°10'0 0.0
2018-Jun-15 12:53N 38°42' W 009°10'0 0.0
2018-Jun-15 10:59N 38°42' W 009°10'0 0.0
2018-Jun-15 09:44N 38°42' W 009°10'0 0.0
2018-Jun-15 08:32N 38°42' W 009°10'0 0.2
2018-Jun-15 08:30N 38°42' W 009°10'0 0.2
2018-Jun-15 07:56N 38°42' W 009°11'2 3.5
2018-Jun-15 07:29N 38°41' W 009°13'1 1.4
2018-Jun-15 07:01N 38°41' W 009°13'0 0.0
2018-Jun-15 06:20N 38°41' W 009°13'0 0.0
2018-Jun-15 05:56N 38°41' W 009°13'0 0.0
2018-Jun-15 05:29N 38°41' W 009°13'0 0.0
2018-Jun-15 04:51N 38°41' W 009°13'0 0.0
2018-Jun-15 04:29N 38°41' W 009°13'0 0.0
2018-Jun-15 03:57N 38°41' W 009°13'0 0.0
2018-Jun-15 03:27N 38°41' W 009°13'0 0.0
2018-Jun-15 02:56N 38°41' W 009°13'0 0.0
2018-Jun-15 02:21N 38°41' W 009°13'0 0.0
2018-Jun-15 01:48N 38°41' W 009°13'0 0.0
2018-Jun-15 01:30N 38°41' W 009°13'0 0.0
2018-Jun-15 00:58N 38°41' W 009°13'0 0.0
2018-Jun-15 00:30N 38°41' W 009°13'0 0.0
2018-Jun-15 00:00N 38°41' W 009°13'0 0.0
2018-Jun-14 23:29N 38°41' W 009°13'0 0.0
2018-Jun-14 22:59N 38°41' W 009°13'0 0.0
2018-Jun-14 22:29N 38°41' W 009°13'0 0.0
2018-Jun-14 22:00N 38°41' W 009°13'0 0.0
2018-Jun-14 21:23N 38°41' W 009°13'0 0.0
2018-Jun-14 21:00N 38°41' W 009°13'0 0.0
2018-Jun-14 20:29N 38°41' W 009°13'0 0.0
2018-Jun-14 19:59N 38°41' W 009°13'0 0.0
2018-Jun-14 19:29N 38°41' W 009°13'0 0.0
2018-Jun-14 18:59N 38°41' W 009°13'0 0.0
2018-Jun-14 18:29N 38°41' W 009°13'0 0.0
2018-Jun-14 17:59N 38°41' W 009°13'0 0.0
2018-Jun-14 17:29N 38°41' W 009°13'0 0.0
2018-Jun-14 16:59N 38°41' W 009°13'0 0.0
2018-Jun-14 16:30N 38°41' W 009°13'0 0.0
2018-Jun-14 16:00N 38°41' W 009°13'0 0.0
2018-Jun-14 15:30N 38°41' W 009°13'0 0.6
2018-Jun-14 15:01N 38°41' W 009°13'1 1.2
2018-Jun-14 14:11N 38°41' W 009°14'0 0.0
2018-Jun-14 13:53N 38°41' W 009°14'0 0.0
2018-Jun-14 13:26N 38°41' W 009°14'0 0.0
2018-Jun-14 11:32N 38°41' W 009°14'0 0.0
2018-Jun-14 11:05N 38°41' W 009°14'0 0.0
2018-Jun-14 10:53N 38°41' W 009°14'0 0.0
2018-Jun-14 10:17N 38°41' W 009°14'0 0.0
2018-Jun-14 09:53N 38°41' W 009°14'0 0.0
2018-Jun-14 09:11N 38°41' W 009°14'0 0.0
2018-Jun-14 08:50N 38°41' W 009°14'0 0.0
2018-Jun-14 08:05N 38°41' W 009°14'0 0.0
2018-Jun-14 07:42N 38°41' W 009°14'0 1.3
2018-Jun-14 07:29N 38°41' W 009°15'2 3.0
2018-Jun-14 06:47N 38°41' W 009°12'0 0.0
2018-Jun-14 06:29N 38°41' W 009°12'0 0.0
2018-Jun-14 05:47N 38°41' W 009°12'0 0.0
2018-Jun-14 05:29N 38°41' W 009°12'0 0.1
2018-Jun-14 04:59N 38°41' W 009°12'0 0.1
2018-Jun-14 04:17N 38°41' W 009°12'0 0.2
2018-Jun-14 03:53N 38°41' W 009°12'0 0.2
2018-Jun-14 03:23N 38°41' W 009°12'0 0.0
2018-Jun-14 02:53N 38°41' W 009°12'0 0.0
2018-Jun-14 02:17N 38°41' W 009°12'0 0.1
2018-Jun-14 01:56N 38°41' W 009°12'0 0.0
2018-Jun-14 01:11N 38°41' W 009°12'0 0.1
2018-Jun-14 00:56N 38°41' W 009°12'0 0.0
2018-Jun-13 23:59N 38°41' W 009°12'0 0.1
2018-Jun-13 23:20N 38°41' W 009°12'1 1.7
2018-Jun-13 22:59N 38°41' W 009°11'4 8.3
2018-Jun-13 22:30N 38°43' W 009°07'0 0.2
2018-Jun-13 21:10N 38°43' W 009°07'0 0.0
2018-Jun-13 20:58N 38°43' W 009°07'0 0.0
2018-Jun-13 20:28N 38°43' W 009°07'0 0.0
2018-Jun-13 19:58N 38°43' W 009°07'0 0.0
2018-Jun-13 19:28N 38°43' W 009°07'0 0.0
2018-Jun-13 18:59N 38°43' W 009°07'0 0.1
2018-Jun-13 18:31N 38°43' W 009°07'0 0.1
2018-Jun-13 17:56N 38°43' W 009°07'0 0.0
2018-Jun-13 17:29N 38°43' W 009°07'0 0.0
2018-Jun-13 16:53N 38°43' W 009°07'  

Dump ship's entire track history